Time;durP1;ratioP1;P1;durP2;ratioP2;P2;SDS_P1;SDS_P2;PMS_P1;PMS_P2;Temp;Humidity;BMP_temperature;BMP_pressure;BME280_temperature;BME280_humidity;BME280_pressure;Samples;Min_cycle;Max_cycle;Signal;HPM_P1;HPM_P2
2023/09/13 04:31:12;;;;;;;;;;;;;;;24.34;63.61;96803.94;4178692;28;10445;-69
2023/09/13 04:33:15;;;;;;;;;;;;;;;24.61;63.04;96796.16;4175264;28;5491;-69
2023/09/13 04:35:18;;;;;;;;;;;;;;;24.82;62.30;96796.81;4181231;28;5912;-68
2023/09/13 04:37:21;;;;;;;;;;;;;;;24.98;61.67;96795.56;4172865;28;5683;-69
2023/09/13 04:39:23;;;;;;;;;;;;;;;25.13;61.35;96791.94;4172430;28;5731;-69
2023/09/13 04:41:26;;;;;;;;;;;;;;;25.20;61.33;96795.13;4181411;28;5731;-68
2023/09/13 04:43:28;;;;;;;;;;;;;;;25.32;60.62;96791.22;4181549;28;5922;-69
2023/09/13 04:45:31;;;;;;;;;;;;;;;25.38;60.42;96801.69;4180982;28;5731;-69
2023/09/13 04:47:36;;;;;;;;;;;;;;;25.44;60.65;96799.72;4178628;28;5827;-69
2023/09/13 04:49:39;;;;;;;;;;;;;;;25.49;60.36;96800.50;4180644;28;5734;-69
2023/09/13 04:51:42;;;;;;;;;;;;;;;25.53;60.08;96803.41;4171901;28;6118;-69
2023/09/13 04:53:45;;;;;;;;;;;;;;;25.55;59.58;96806.63;4175234;28;5850;-69
2023/09/13 04:55:48;;;;;;;;;;;;;;;25.61;59.30;96807.41;4180622;28;7860;-69
2023/09/13 04:57:51;;;;;;;;;;;;;;;25.62;59.44;96806.31;4181026;28;5739;-69
2023/09/13 04:59:55;;;;;;;;;;;;;;;25.66;59.43;96821.66;4178923;28;5819;-69
2023/09/13 05:01:58;;;;;;;;;;;;;;;25.68;58.90;96827.59;4179118;28;5833;-69
2023/09/13 05:04:02;;;;;;;;;;;;;;;25.67;58.80;96833.28;4173064;28;5779;-70
2023/09/13 05:06:06;;;;;;;;;;;;;;;25.59;58.33;96828.50;4172180;28;5861;-70
2023/09/13 05:08:10;;;;;;;;;;;;;;;25.38;58.29;96815.22;4178636;28;5834;-69
2023/09/13 05:10:13;;;;;;;;;;;;;;;25.24;58.38;96814.28;4180801;28;5747;-69
2023/09/13 05:12:16;;;;;;;;;;;;;;;25.18;58.75;96829.75;4179993;28;6184;-69
2023/09/13 05:14:18;;;;;;;;;;;;;;;25.25;59.11;96838.34;4178952;28;5855;-69
2023/09/13 05:16:21;;;;;;;;;;;;;;;25.34;58.83;96841.22;4176470;28;5958;-69
2023/09/13 05:18:24;;;;;;;;;;;;;;;25.23;58.12;96835.09;4175447;28;5986;-69
2023/09/13 05:20:28;;;;;;;;;;;;;;;25.16;58.47;96839.25;4175892;28;5772;-69
2023/09/13 05:22:31;;;;;;;;;;;;;;;25.17;58.35;96830.06;4166553;28;5739;-69
2023/09/13 05:24:34;;;;;;;;;;;;;;;25.21;58.46;96840.00;4170737;28;5715;-70
2023/09/13 05:26:37;;;;;;;;;;;;;;;25.24;58.17;96835.91;4169756;28;5851;-70
2023/09/13 05:28:40;;;;;;;;;;;;;;;25.22;57.92;96848.94;4174672;28;5743;-70
2023/09/13 05:30:48;;;;;;;;;;;;;;;25.19;57.62;96844.09;4175364;28;5944;-70
2023/09/13 05:32:51;;;;;;;;;;;;;;;25.14;57.60;96839.56;4161865;28;5678;-69
2023/09/13 05:34:54;;;;;;;;;;;;;;;25.16;57.69;96850.09;4156094;28;5735;-72
2023/09/13 05:36:59;;;;;;;;;;;;;;;25.19;57.35;96849.50;4157698;28;6429;-72
2023/09/13 05:39:03;;;;;;;;;;;;;;;25.21;57.56;96848.13;4163298;28;5970;-73
2023/09/13 05:41:07;;;;;;;;;;;;;;;25.27;57.55;96848.91;4168743;28;5752;-71
2023/09/13 05:43:09;;;;;;;;;;;;;;;25.30;57.00;96853.72;4160907;28;5731;-71
2023/09/13 05:45:11;;;;;;;;;;;;;;;25.30;57.00;96859.13;4169084;28;5734;-71
2023/09/13 05:47:14;;;;;;;;;;;;;;;25.32;56.98;96856.94;4169028;28;5732;-71
2023/09/13 05:49:17;;;;;;;;;;;;;;;25.32;57.02;96856.94;4168799;28;5754;-72
2023/09/13 05:51:21;;;;;;;;;;;;;;;25.32;56.94;96859.66;4168616;28;5930;-72
2023/09/13 05:53:26;;;;;;;;;;;;;;;25.33;56.90;96863.97;4168928;28;5826;-75
2023/09/13 05:55:29;;;;;;;;;;;;;;;25.35;57.31;96866.38;4169016;28;6133;-74
2023/09/13 05:57:31;;;;;;;;;;;;;;;25.33;57.02;96869.38;4168136;28;5727;-76
2023/09/13 05:59:39;;;;;;;;;;;;;;;25.33;57.06;96876.69;4168710;28;5746;-72
2023/09/13 06:01:42;;;;;;;;;;;;;;;25.33;57.08;96885.63;4168875;28;5750;-72
2023/09/13 06:03:45;;;;;;;;;;;;;;;25.33;57.21;96891.03;4169143;28;5753;-72
2023/09/13 06:05:50;;;;;;;;;;;;;;;25.36;57.11;96886.94;4168961;28;5860;-72
2023/09/13 06:07:53;;;;;;;;;;;;;;;25.34;57.49;96883.72;4169004;28;5747;-72
2023/09/13 06:10:00;;;;;;;;;;;;;;;25.27;57.40;96888.69;4168875;28;6425;-72
2023/09/13 06:12:03;;;;;;;;;;;;;;;25.24;57.53;96884.63;4168881;28;5739;-72
2023/09/13 06:14:07;;;;;;;;;;;;;;;25.18;57.41;96880.34;4166209;28;5874;-72
2023/09/13 06:16:13;;;;;;;;;;;;;;;25.12;57.20;96881.47;4164377;28;5743;-72
2023/09/13 06:18:16;;;;;;;;;;;;;;;25.04;57.52;96879.41;4168911;28;5742;-72
2023/09/13 06:20:19;;;;;;;;;;;;;;;25.02;57.51;96886.97;4165990;28;5813;-71
2023/09/13 06:22:23;;;;;;;;;;;;;;;24.98;57.21;96887.50;4168471;28;5751;-72
2023/09/13 06:24:26;;;;;;;;;;;;;;;24.88;57.74;96895.72;4168482;28;5814;-72
2023/09/13 06:26:30;;;;;;;;;;;;;;;24.67;58.13;96886.13;4168594;28;5950;-72
2023/09/13 06:28:32;;;;;;;;;;;;;;;24.54;58.58;96890.25;4168700;28;5738;-72
2023/09/13 06:30:35;;;;;;;;;;;;;;;24.59;58.58;96890.25;4168404;28;5078;-72
2023/09/13 06:32:38;;;;;;;;;;;;;;;24.63;58.42;96902.09;4168297;28;5837;-72
2023/09/13 06:34:44;;;;;;;;;;;;;;;24.72;58.59;96904.22;4168307;28;5735;-72
2023/09/13 06:36:48;;;;;;;;;;;;;;;24.77;58.01;96904.97;4167742;28;5740;-72
2023/09/13 06:38:52;;;;;;;;;;;;;;;24.82;57.80;96904.16;4166165;28;6650;-72
2023/09/13 06:40:55;;;;;;;;;;;;;;;24.74;58.30;96904.75;4166129;28;5915;-72
2023/09/13 06:43:00;;;;;;;;;;;;;;;24.70;58.33;96906.41;4165133;28;5887;-72
2023/09/13 06:45:04;;;;;;;;;;;;;;;24.71;58.22;96908.81;4168248;28;5735;-72
2023/09/13 06:47:28;;;;;;;;;;;;;;;24.71;58.20;96914.22;4161694;28;5743;-72
2023/09/13 06:49:32;;;;;;;;;;;;;;;24.69;58.44;96902.91;4157227;28;5752;-72
2023/09/13 06:51:36;;;;;;;;;;;;;;;24.68;58.44;96903.94;4161814;28;5736;-71
2023/09/13 06:53:43;;;;;;;;;;;;;;;24.64;58.71;96909.13;4168692;28;5822;-72
2023/09/13 06:55:51;;;;;;;;;;;;;;;24.64;58.62;96903.72;4165896;28;5731;-72
2023/09/13 06:57:56;;;;;;;;;;;;;;;24.70;58.26;96911.81;4168102;28;5732;-71
2023/09/13 07:00:08;;;;;;;;;;;;;;;24.72;58.19;96915.84;4167749;28;5730;-72
2023/09/13 07:02:14;;;;;;;;;;;;;;;24.71;58.07;96911.53;4152471;28;5764;-72
2023/09/13 07:04:23;;;;;;;;;;;;;;;24.68;58.04;96912.06;4167293;28;5727;-73
2023/09/13 07:06:37;;;;;;;;;;;;;;;24.60;57.76;96910.78;4167026;28;5747;-72
2023/09/13 07:08:40;;;;;;;;;;;;;;;24.59;58.12;96905.66;4168057;28;5855;-71
2023/09/13 07:10:43;;;;;;;;;;;;;;;24.58;58.31;96917.56;4165688;28;5770;-72
2023/09/13 07:12:45;;;;;;;;;;;;;;;24.63;58.28;96909.41;4166419;28;5746;-72
2023/09/13 07:14:48;;;;;;;;;;;;;;;24.69;58.21;96916.41;4167158;28;5727;-72
2023/09/13 07:16:52;;;;;;;;;;;;;;;24.73;58.10;96920.16;4167981;28;5803;-71
2023/09/13 07:18:55;;;;;;;;;;;;;;;24.73;57.85;96925.56;4165496;28;5750;-72
2023/09/13 07:20:58;;;;;;;;;;;;;;;24.70;57.72;96911.81;4166738;28;5814;-73
2023/09/13 07:23:01;;;;;;;;;;;;;;;24.74;57.71;96913.66;4161483;28;5794;-66
2023/09/13 07:25:05;;;;;;;;;;;;;;;24.79;57.70;96910.91;4166721;28;5865;-67
2023/09/13 07:27:09;;;;;;;;;;;;;;;24.83;57.33;96911.97;4167539;28;5730;-68
2023/09/13 07:29:12;;;;;;;;;;;;;;;24.88;57.54;96919.22;4166936;28;5925;-69
2023/09/13 07:31:14;;;;;;;;;;;;;;;24.90;57.55;96917.84;4167085;28;7742;-73
2023/09/13 07:33:19;;;;;;;;;;;;;;;24.93;57.56;96928.13;4167339;28;5775;-75
2023/09/13 07:35:23;;;;;;;;;;;;;;;24.96;57.37;96929.47;4166834;28;6448;-73
2023/09/13 07:37:27;;;;;;;;;;;;;;;24.97;57.22;96936.47;4167075;28;5731;-65
2023/09/13 07:39:30;;;;;;;;;;;;;;;24.93;57.35;96941.66;4161674;28;5743;-64
2023/09/13 07:41:33;;;;;;;;;;;;;;;24.92;57.38;96937.34;4163861;28;5776;-64
2023/09/13 07:43:36;;;;;;;;;;;;;;;24.93;57.42;96941.66;4162345;28;5728;-73
2023/09/13 07:45:39;;;;;;;;;;;;;;;24.97;57.39;96947.31;4167140;28;5742;-66
2023/09/13 07:47:42;;;;;;;;;;;;;;;24.98;57.37;96951.63;4167117;28;5830;-62
2023/09/13 07:49:46;;;;;;;;;;;;;;;24.98;57.44;96954.31;4166292;28;5716;-68
2023/09/13 07:51:49;;;;;;;;;;;;;;;24.99;57.20;96955.94;4166923;28;5954;-68
2023/09/13 07:53:53;;;;;;;;;;;;;;;25.00;57.32;96957.53;4166658;28;5882;-69
2023/09/13 07:55:59;;;;;;;;;;;;;;;25.03;57.56;96964.31;4166758;28;5739;-68
2023/09/13 07:58:03;;;;;;;;;;;;;;;25.01;57.66;96955.66;4170746;28;5837;-67
2023/09/13 08:00:07;;;;;;;;;;;;;;;25.02;57.56;96960.00;4165953;28;6421;-72
2023/09/13 08:02:10;;;;;;;;;;;;;;;25.02;57.05;96973.53;4167958;28;5969;-67
2023/09/13 08:04:13;;;;;;;;;;;;;;;25.01;57.41;96969.16;4167029;28;5727;-71
2023/09/13 08:06:22;;;;;;;;;;;;;;;24.98;57.54;96962.44;4166558;28;5727;-67
2023/09/13 08:08:25;;;;;;;;;;;;;;;24.98;57.20;96968.66;4166666;28;5735;-69
2023/09/13 08:10:28;;;;;;;;;;;;;;;24.97;57.47;96971.63;4166911;28;5735;-69
2023/09/13 08:12:32;;;;;;;;;;;;;;;24.93;57.12;96970.59;4163455;28;5739;-64
2023/09/13 08:14:35;;;;;;;;;;;;;;;24.88;57.52;96957.91;4165496;28;5746;-64
2023/09/13 08:16:38;;;;;;;;;;;;;;;24.84;57.62;96962.25;4166322;28;5841;-65
2023/09/13 08:18:41;;;;;;;;;;;;;;;24.84;57.67;96958.75;4162983;28;6064;-65
2023/09/13 08:20:44;;;;;;;;;;;;;;;24.84;57.62;96954.16;4154788;28;5738;-64
2023/09/13 08:22:49;;;;;;;;;;;;;;;24.92;57.79;96963.56;4164037;28;5834;-65
2023/09/13 08:24:52;;;;;;;;;;;;;;;24.95;57.60;96974.63;4162838;28;5848;-64
2023/09/13 08:26:55;;;;;;;;;;;;;;;24.94;57.41;96967.59;4164295;28;5780;-64
2023/09/13 08:28:58;;;;;;;;;;;;;;;24.97;57.54;96971.63;4166411;28;5826;-65
2023/09/13 08:31:03;;;;;;;;;;;;;;;24.94;57.84;96975.72;4165940;28;5913;-65
2023/09/13 08:33:06;;;;;;;;;;;;;;;24.89;57.71;96989.25;4165863;28;5743;-65
2023/09/13 08:35:10;;;;;;;;;;;;;;;24.87;57.86;96983.31;4158395;28;5802;-64
2023/09/13 08:37:13;;;;;;;;;;;;;;;24.85;57.94;96990.91;4162622;28;5846;-63
2023/09/13 08:39:18;;;;;;;;;;;;;;;24.89;58.00;96997.38;4165981;28;5727;-63
2023/09/13 08:41:21;;;;;;;;;;;;;;;24.90;57.58;96998.19;4165756;28;6027;-62
2023/09/13 08:43:24;;;;;;;;;;;;;;;24.87;57.66;96990.63;4166485;28;7756;-62
2023/09/13 08:45:30;;;;;;;;;;;;;;;24.81;57.54;96995.28;4164113;28;5890;-62
2023/09/13 08:47:38;;;;;;;;;;;;;;;24.76;57.57;96987.19;4161422;28;5750;-62
2023/09/13 08:50:03;;;;;;;;;;;;;;;24.80;57.90;96990.94;4164791;28;5739;-69
2023/09/13 08:52:07;;;;;;;;;;;;;;;24.79;57.51;96993.91;4163835;28;5742;-68
2023/09/13 08:54:12;;;;;;;;;;;;;;;24.80;57.90;96995.53;4159783;28;5784;-72
2023/09/13 08:56:16;;;;;;;;;;;;;;;24.83;57.93;96995.00;4164869;28;5727;-71
2023/09/13 08:58:18;;;;;;;;;;;;;;;24.87;58.08;96999.56;4166324;28;5882;-64
2023/09/13 09:00:21;;;;;;;;;;;;;;;24.91;58.10;97006.00;4164967;28;5787;-63
2023/09/13 09:02:26;;;;;;;;;;;;;;;24.95;58.04;97007.09;4165634;28;5814;-64
2023/09/13 09:04:29;;;;;;;;;;;;;;;24.99;58.21;97010.03;4165831;28;6009;-69
2023/09/13 09:06:32;;;;;;;;;;;;;;;25.01;57.99;97015.16;4166808;28;5999;-73
2023/09/13 09:08:39;;;;;;;;;;;;;;;25.03;58.14;97008.44;4169414;28;5849;-74
2023/09/13 09:10:44;;;;;;;;;;;;;;;25.03;58.20;97008.44;4168232;28;5743;-70
2023/09/13 09:12:51;;;;;;;;;;;;;;;25.03;58.24;97011.13;4168278;28;5739;-69
2023/09/13 09:14:56;;;;;;;;;;;;;;;25.02;58.25;97012.19;4167774;28;5759;-73
2023/09/13 09:17:00;;;;;;;;;;;;;;;25.03;58.20;97010.28;4159823;28;5939;-62
2023/09/13 09:19:04;;;;;;;;;;;;;;;25.04;58.44;97012.75;4165363;28;6588;-61
2023/09/13 09:21:08;;;;;;;;;;;;;;;25.04;57.98;97014.63;4167495;28;5093;-63
2023/09/13 09:23:12;;;;;;;;;;;;;;;25.03;58.21;97015.69;4168269;28;5754;-62
2023/09/13 09:25:15;;;;;;;;;;;;;;;25.01;57.99;97025.97;4168825;28;6653;-62
2023/09/13 09:27:18;;;;;;;;;;;;;;;25.00;58.17;97029.75;4168339;28;5719;-62
2023/09/13 09:29:34;;;;;;;;;;;;;;;24.99;57.82;97023.53;4168842;28;6025;-62
2023/09/13 09:31:36;;;;;;;;;;;;;;;24.98;58.07;97022.75;4168845;28;5751;-63
2023/09/13 09:33:42;;;;;;;;;;;;;;;24.96;57.97;97030.31;4168772;28;6416;-62
2023/09/13 09:35:54;;;;;;;;;;;;;;;24.94;57.69;97032.50;4163871;28;5760;-62
2023/09/13 09:37:56;;;;;;;;;;;;;;;24.97;57.88;97040.06;4166972;28;5719;-63
2023/09/13 09:39:59;;;;;;;;;;;;;;;25.00;58.08;97040.56;4164602;28;5837;-62
2023/09/13 09:42:02;;;;;;;;;;;;;;;25.02;58.13;97033.81;4159229;28;5924;-62
2023/09/13 09:44:06;;;;;;;;;;;;;;;25.03;58.09;97038.19;4159945;28;5739;-62
2023/09/13 09:46:11;;;;;;;;;;;;;;;25.04;58.05;97036.28;4160272;28;5953;-62
2023/09/13 09:48:13;;;;;;;;;;;;;;;25.04;57.82;97041.69;4162736;28;5867;-63
2023/09/13 09:50:17;;;;;;;;;;;;;;;25.05;57.79;97029.78;4165327;28;5727;-62
2023/09/13 09:52:20;;;;;;;;;;;;;;;25.05;58.06;97035.19;4167723;28;5822;-62
2023/09/13 09:54:23;;;;;;;;;;;;;;;25.05;58.06;97019.78;4158459;28;5772;-62
2023/09/13 09:56:26;;;;;;;;;;;;;;;25.05;57.94;97021.66;4159257;28;5847;-62
2023/09/13 09:58:29;;;;;;;;;;;;;;;25.06;57.85;97023.28;4162684;28;9162;-63
2023/09/13 10:00:32;;;;;;;;;;;;;;;25.06;58.10;97026.78;4167331;28;5895;-63
2023/09/13 10:02:37;;;;;;;;;;;;;;;25.05;58.05;97022.47;4168098;28;5986;-62
2023/09/13 10:04:45;;;;;;;;;;;;;;;25.05;57.90;97027.88;4173895;28;5735;-62
2023/09/13 10:07:00;;;;;;;;;;;;;;;25.05;58.09;97027.06;4167119;28;5826;-62
2023/09/13 10:09:05;;;;;;;;;;;;;;;25.05;57.82;97033.28;4163594;28;5825;-62
2023/09/13 10:11:08;;;;;;;;;;;;;;;25.07;58.04;97031.09;4167328;28;5913;-61
2023/09/13 10:13:14;;;;;;;;;;;;;;;25.07;58.14;97031.09;4165447;28;5814;-62
2023/09/13 10:15:18;;;;;;;;;;;;;;;25.08;58.05;97040.84;4168057;28;5779;-61
2023/09/13 10:17:22;;;;;;;;;;;;;;;25.09;58.03;97038.94;4167403;28;5779;-62
2023/09/13 10:19:29;;;;;;;;;;;;;;;25.09;58.31;97034.34;4167710;28;5926;-62
2023/09/13 10:21:33;;;;;;;;;;;;;;;25.08;58.12;97038.13;4166842;28;5752;-62
2023/09/13 10:23:39;;;;;;;;;;;;;;;25.09;58.18;97037.03;4163113;28;5887;-61
2023/09/13 10:25:45;;;;;;;;;;;;;;;25.09;58.37;97044.34;4168251;28;5747;-61
2023/09/13 10:27:50;;;;;;;;;;;;;;;25.10;58.48;97046.78;4167624;28;5842;-61
2023/09/13 10:29:57;;;;;;;;;;;;;;;25.11;58.40;97040.28;4166089;28;5811;-62
2023/09/13 10:32:02;;;;;;;;;;;;;;;25.11;58.62;97037.56;4167209;28;5739;-62
2023/09/13 10:34:11;;;;;;;;;;;;;;;25.12;58.35;97043.78;4167925;28;5822;-62
2023/09/13 10:36:22;;;;;;;;;;;;;;;25.11;58.63;97034.84;4160521;28;5715;-63
2023/09/13 10:38:32;;;;;;;;;;;;;;;25.12;58.79;97043.78;4164126;28;5131;-63
2023/09/13 10:40:39;;;;;;;;;;;;;;;25.11;58.70;97044.88;4160114;28;5739;-63
2023/09/13 10:42:44;;;;;;;;;;;;;;;25.10;58.73;97052.19;4168147;28;5723;-63
2023/09/13 10:44:49;;;;;;;;;;;;;;;25.09;59.01;97055.97;4166982;28;6166;-63
2023/09/13 10:46:53;;;;;;;;;;;;;;;25.11;58.74;97053.00;4165646;28;5738;-62
2023/09/13 10:48:58;;;;;;;;;;;;;;;25.11;58.65;97048.38;4167497;28;6440;-62
2023/09/13 10:51:02;;;;;;;;;;;;;;;25.13;59.00;97058.91;4167341;28;5802;-62
2023/09/13 10:53:09;;;;;;;;;;;;;;;25.10;58.89;97046.78;4160699;28;5970;-61
2023/09/13 10:55:13;;;;;;;;;;;;;;;25.15;59.08;97062.19;4163782;28;5834;-62
2023/09/13 10:57:16;;;;;;;;;;;;;;;25.14;58.97;97053.25;4167370;28;5911;-62
2023/09/13 10:59:22;;;;;;;;;;;;;;;25.14;58.78;97050.56;4167385;28;5730;-62
2023/09/13 11:01:26;;;;;;;;;;;;;;;25.13;58.76;97046.19;4167809;28;5388;-62
2023/09/13 11:03:32;;;;;;;;;;;;;;;25.14;58.75;97063.25;4167174;28;5969;-62
2023/09/13 11:05:35;;;;;;;;;;;;;;;25.14;58.96;97060.53;4167438;28;5731;-64
2023/09/13 11:07:41;;;;;;;;;;;;;;;25.14;58.72;97060.53;4166990;28;8452;-64
2023/09/13 11:09:46;;;;;;;;;;;;;;;25.14;58.97;97064.06;4167272;28;5878;-62
2023/09/13 11:11:52;;;;;;;;;;;;;;;25.14;58.74;97069.50;4163311;28;6440;-62
2023/09/13 11:13:57;;;;;;;;;;;;;;;25.14;58.73;97069.50;4164791;28;5760;-62
2023/09/13 11:16:03;;;;;;;;;;;;;;;25.14;59.13;97074.06;4166423;28;5947;-61
2023/09/13 11:18:15;;;;;;;;;;;;;;;25.14;58.80;97085.72;4161819;28;5877;-62
2023/09/13 11:20:23;;;;;;;;;;;;;;;25.14;58.82;97082.19;4166980;28;6726;-62
2023/09/13 11:22:39;;;;;;;;;;;;;;;25.14;58.94;97088.41;4165815;28;5901;-62
2023/09/13 11:24:43;;;;;;;;;;;;;;;25.14;59.01;97091.13;4162627;28;5748;-65
2023/09/13 11:27:14;;;;;;;;;;;;;;;25.14;59.17;97090.28;4166450;28;6524;-65
2023/09/13 11:29:43;;;;;;;;;;;;;;;25.12;59.20;97097.88;4151648;28;5760;-64
2023/09/13 11:31:58;;;;;;;;;;;;;;;25.09;59.33;97096.56;4167057;28;5794;-62
2023/09/13 11:34:03;;;;;;;;;;;;;;;25.06;58.98;97093.59;4167021;28;5775;-62
2023/09/13 11:36:08;;;;;;;;;;;;;;;25.02;58.97;97109.56;4166727;28;5909;-63
2023/09/13 11:38:12;;;;;;;;;;;;;;;24.97;59.19;97110.38;4160483;28;5805;-64
2023/09/13 11:40:15;;;;;;;;;;;;;;;24.94;58.83;97118.25;4167042;28;5795;-64
2023/09/13 11:42:24;;;;;;;;;;;;;;;24.93;59.01;97117.44;4162882;28;5731;-69
2023/09/13 11:44:38;;;;;;;;;;;;;;;24.93;58.66;97117.44;4162732;28;5735;-69
2023/09/13 11:47:02;;;;;;;;;;;;;;;24.92;59.00;97121.22;4165259;28;5766;-71
2023/09/13 11:49:07;;;;;;;;;;;;;;;24.93;59.18;97122.84;4165748;28;5818;-65
2023/09/13 11:51:23;;;;;;;;;;;;;;;24.97;58.59;97120.38;4166408;28;6592;-63
2023/09/13 11:53:32;;;;;;;;;;;;;;;24.96;58.69;97129.59;4158305;28;6124;-63
2023/09/13 11:55:38;;;;;;;;;;;;;;;24.94;58.52;97121.75;4163299;28;6015;-66
2023/09/13 11:57:53;;;;;;;;;;;;;;;24.95;58.64;97127.97;4165469;28;5793;-68
2023/09/13 12:00:07;;;;;;;;;;;;;;;24.95;58.79;97120.66;4165529;28;5739;-68
2023/09/13 12:02:12;;;;;;;;;;;;;;;24.95;58.24;97125.25;4160232;28;5727;-67
2023/09/13 12:04:22;;;;;;;;;;;;;;;24.96;58.30;97126.88;4166320;28;5810;-67
2023/09/13 12:06:47;;;;;;;;;;;;;;;24.94;58.10;97129.06;4166308;28;5734;-66
2023/09/13 12:08:55;;;;;;;;;;;;;;;24.94;58.07;97129.06;4166781;28;5826;-66
2023/09/13 12:11:06;;;;;;;;;;;;;;;24.94;58.22;97134.47;4166784;28;5826;-65
2023/09/13 12:13:11;;;;;;;;;;;;;;;24.92;57.69;97129.34;4157859;28;5730;-66
2023/09/13 12:15:34;;;;;;;;;;;;;;;24.92;58.07;97140.16;4159905;28;5905;-66
2023/09/13 12:17:40;;;;;;;;;;;;;;;24.92;58.04;97136.66;4164913;28;5815;-66
2023/09/13 12:19:46;;;;;;;;;;;;;;;24.89;57.60;97137.97;4164544;28;5841;-61
2023/09/13 12:21:49;;;;;;;;;;;;;;;24.85;57.58;97130.72;4163411;28;5736;-61
2023/09/13 12:23:52;;;;;;;;;;;;;;;24.83;57.85;97143.69;4166362;28;5839;-61
2023/09/13 12:25:57;;;;;;;;;;;;;;;24.81;57.53;97135.88;4166317;28;5727;-62
2023/09/13 12:28:00;;;;;;;;;;;;;;;24.82;57.46;97142.91;4166393;28;5754;-61
2023/09/13 12:30:07;;;;;;;;;;;;;;;24.81;57.72;97143.97;4166259;28;5738;-61
2023/09/13 12:32:09;;;;;;;;;;;;;;;24.82;57.64;97142.91;4166392;28;5751;-62
2023/09/13 12:34:13;;;;;;;;;;;;;;;24.82;57.54;97142.91;4166259;28;5787;-62
2023/09/13 12:36:16;;;;;;;;;;;;;;;24.83;57.48;97149.09;4166188;28;5771;-62
2023/09/13 12:38:19;;;;;;;;;;;;;;;24.80;57.64;97145.03;4166716;28;5735;-62
2023/09/13 12:40:27;;;;;;;;;;;;;;;24.80;57.61;97141.53;4166357;28;5864;-62
2023/09/13 12:42:30;;;;;;;;;;;;;;;24.79;57.36;97143.41;4169389;28;5751;-62
2023/09/13 12:44:35;;;;;;;;;;;;;;;24.78;57.40;97147.22;4169782;28;5743;-62
2023/09/13 12:46:40;;;;;;;;;;;;;;;24.77;57.60;97142.91;4161257;28;5742;-62
2023/09/13 12:48:44;;;;;;;;;;;;;;;24.77;57.66;97145.59;4169758;28;5735;-62
2023/09/13 12:50:47;;;;;;;;;;;;;;;24.77;57.52;97144.78;4169508;28;5854;-62
2023/09/13 12:52:51;;;;;;;;;;;;;;;24.75;57.63;97145.06;4169077;28;5805;-62
2023/09/13 12:54:56;;;;;;;;;;;;;;;24.74;57.65;97140.75;4169537;28;5739;-62
2023/09/13 12:57:03;;;;;;;;;;;;;;;24.68;57.55;97148.06;4169607;28;5829;-63
2023/09/13 12:59:07;;;;;;;;;;;;;;;24.68;57.77;97152.66;4169452;28;5739;-61
2023/09/13 13:01:10;;;;;;;;;;;;;;;24.67;58.06;97153.72;4169441;28;5934;-61
2023/09/13 13:03:14;;;;;;;;;;;;;;;24.68;58.00;97155.34;4163770;28;5731;-62
2023/09/13 13:05:17;;;;;;;;;;;;;;;24.68;57.91;97152.66;4161138;28;5776;-62
2023/09/13 13:07:24;;;;;;;;;;;;;;;24.65;57.55;97148.59;4168607;28;5851;-62
2023/09/13 13:09:27;;;;;;;;;;;;;;;24.64;57.49;97152.41;4169223;28;5846;-62
2023/09/13 13:11:33;;;;;;;;;;;;;;;24.64;57.88;97159.69;4169383;28;6001;-62
2023/09/13 13:13:38;;;;;;;;;;;;;;;24.61;57.97;97147.53;4169417;28;5743;-62
2023/09/13 13:15:40;;;;;;;;;;;;;;;24.62;57.77;97153.75;4169228;28;5759;-64
2023/09/13 13:17:46;;;;;;;;;;;;;;;24.61;57.79;97158.34;4164598;28;5757;-62
2023/09/13 13:19:50;;;;;;;;;;;;;;;24.60;57.39;97153.22;4166056;28;5738;-62
2023/09/13 13:21:59;;;;;;;;;;;;;;;24.57;57.91;97151.84;4168862;28;6559;-62
2023/09/13 13:24:13;;;;;;;;;;;;;;;24.56;57.83;97152.94;4160839;28;5837;-62
2023/09/13 13:26:18;;;;;;;;;;;;;;;24.56;57.58;97152.13;4169146;28;5807;-64
2023/09/13 13:28:21;;;;;;;;;;;;;;;24.52;57.62;97161.88;4167348;28;5742;-63
2023/09/13 13:30:24;;;;;;;;;;;;;;;24.51;57.68;97160.28;4161339;28;5650;-63
2023/09/13 13:32:27;;;;;;;;;;;;;;;24.50;57.47;97158.66;4168770;28;6470;-63
2023/09/13 13:34:31;;;;;;;;;;;;;;;24.50;57.72;97154.06;4168725;28;5949;-65
2023/09/13 13:36:35;;;;;;;;;;;;;;;24.52;57.47;97154.59;4168307;28;5743;-63
2023/09/13 13:38:40;;;;;;;;;;;;;;;24.51;57.54;97160.28;4166742;28;5106;-63
2023/09/13 13:40:42;;;;;;;;;;;;;;;24.51;57.90;97152.97;4168679;28;5101;-63
2023/09/13 13:42:46;;;;;;;;;;;;;;;24.52;57.69;97162.69;4168488;28;5826;-63
2023/09/13 13:44:48;;;;;;;;;;;;;;;24.48;57.53;97158.13;4168610;28;5830;-63
2023/09/13 13:46:51;;;;;;;;;;;;;;;24.46;57.65;97152.97;4168753;28;5727;-63
2023/09/13 13:48:54;;;;;;;;;;;;;;;24.48;57.86;97152.72;4160480;28;5723;-62
2023/09/13 13:50:59;;;;;;;;;;;;;;;24.48;57.72;97156.22;4168394;28;5081;-65
2023/09/13 13:53:03;;;;;;;;;;;;;;;24.46;57.30;97152.16;4167799;28;5739;-62
2023/09/13 13:55:09;;;;;;;;;;;;;;;24.45;57.64;97155.94;4168567;28;5825;-62
2023/09/13 13:57:13;;;;;;;;;;;;;;;24.45;57.33;97161.34;4160421;28;5850;-62
2023/09/13 13:59:17;;;;;;;;;;;;;;;24.43;57.33;97158.94;4168259;28;5810;-62
2023/09/13 14:01:20;;;;;;;;;;;;;;;24.42;57.13;97156.50;4168417;28;5727;-62
2023/09/13 14:03:25;;;;;;;;;;;;;;;24.41;56.89;97154.88;4168365;28;5735;-62
2023/09/13 14:05:28;;;;;;;;;;;;;;;24.41;57.06;97161.09;4160150;28;5812;-62
2023/09/13 14:07:31;;;;;;;;;;;;;;;24.43;57.04;97155.41;4168171;28;5219;-62
2023/09/13 14:09:35;;;;;;;;;;;;;;;24.43;56.60;97155.41;4168368;28;5758;-62
2023/09/13 14:11:40;;;;;;;;;;;;;;;24.43;57.01;97155.41;4168188;28;5735;-63
2023/09/13 14:13:43;;;;;;;;;;;;;;;24.43;56.64;97155.41;4168377;28;5727;-62
2023/09/13 14:15:47;;;;;;;;;;;;;;;24.42;56.62;97153.78;4160046;28;5735;-62
2023/09/13 14:17:50;;;;;;;;;;;;;;;24.43;56.77;97147.31;4162860;28;5840;-62
2023/09/13 14:19:53;;;;;;;;;;;;;;;24.43;56.83;97153.53;4165764;28;5826;-62
2023/09/13 14:21:56;;;;;;;;;;;;;;;24.45;56.66;97153.25;4167963;28;5802;-62
2023/09/13 14:24:03;;;;;;;;;;;;;;;24.44;56.51;97147.03;4166046;28;5826;-62
2023/09/13 14:26:07;;;;;;;;;;;;;;;24.45;56.84;97153.25;4165891;28;6851;-62
2023/09/13 14:28:12;;;;;;;;;;;;;;;24.45;56.42;97148.66;4167108;28;5752;-62
2023/09/13 14:30:15;;;;;;;;;;;;;;;24.44;56.42;97151.63;4166921;28;5441;-62
2023/09/13 14:32:19;;;;;;;;;;;;;;;24.44;56.51;97140.81;4157112;28;7819;-62
2023/09/13 14:34:22;;;;;;;;;;;;;;;24.42;56.60;97132.19;4164452;28;5723;-61
2023/09/13 14:36:25;;;;;;;;;;;;;;;24.44;56.62;97136.22;4165748;28;5909;-61
2023/09/13 14:38:28;;;;;;;;;;;;;;;24.44;56.39;97147.03;4167893;28;5135;-61
2023/09/13 14:40:31;;;;;;;;;;;;;;;24.44;56.76;97132.72;4166204;28;5975;-61
2023/09/13 14:42:35;;;;;;;;;;;;;;;24.46;56.81;97144.06;4162904;28;5933;-62
2023/09/13 14:44:39;;;;;;;;;;;;;;;24.48;56.74;97141.91;4164994;28;5723;-61
2023/09/13 14:46:42;;;;;;;;;;;;;;;24.49;56.87;97143.53;4161643;28;5818;-62
2023/09/13 14:48:48;;;;;;;;;;;;;;;24.48;56.73;97141.91;4163549;28;5913;-62
2023/09/13 14:50:52;;;;;;;;;;;;;;;24.48;56.36;97136.50;4173717;28;6403;-62
2023/09/13 14:52:55;;;;;;;;;;;;;;;24.50;56.79;97142.44;4171736;28;6547;-61
2023/09/13 14:54:58;;;;;;;;;;;;;;;24.50;56.80;97135.13;4164345;28;5089;-68
2023/09/13 14:57:01;;;;;;;;;;;;;;;24.50;56.73;97140.53;4155740;28;5658;-69
2023/09/13 14:59:05;;;;;;;;;;;;;;;24.53;56.48;97144.59;4164527;28;5743;-70
2023/09/13 15:01:08;;;;;;;;;;;;;;;24.50;56.58;97140.53;4164525;28;5739;-62
2023/09/13 15:03:12;;;;;;;;;;;;;;;24.51;56.73;97144.06;4159837;28;5905;-66
2023/09/13 15:05:15;;;;;;;;;;;;;;;24.51;56.55;97141.34;4162777;28;5743;-62
2023/09/13 15:07:18;;;;;;;;;;;;;;;24.51;56.23;97144.06;4165104;28;5715;-62
2023/09/13 15:09:21;;;;;;;;;;;;;;;24.49;56.29;97138.13;4167456;28;5725;-62
2023/09/13 15:11:24;;;;;;;;;;;;;;;24.49;56.53;97143.53;4167381;28;5941;-63
2023/09/13 15:13:27;;;;;;;;;;;;;;;24.49;56.20;97144.34;4161428;28;5918;-62
2023/09/13 15:15:31;;;;;;;;;;;;;;;24.51;56.24;97135.94;4163462;28;7110;-62
2023/09/13 15:17:34;;;;;;;;;;;;;;;24.51;56.37;97139.47;4167013;28;5097;-61
2023/09/13 15:19:36;;;;;;;;;;;;;;;24.52;56.34;97143.78;4164571;28;5914;-63
2023/09/13 15:21:39;;;;;;;;;;;;;;;24.50;56.66;97147.84;4163169;28;5727;-62
2023/09/13 15:23:43;;;;;;;;;;;;;;;24.50;56.24;97150.53;4162104;28;5727;-62
2023/09/13 15:25:46;;;;;;;;;;;;;;;24.49;56.47;97143.53;4162188;28;5710;-62
2023/09/13 15:27:49;;;;;;;;;;;;;;;24.47;56.45;97140.28;4163328;28;5825;-62
2023/09/13 15:29:52;;;;;;;;;;;;;;;24.48;56.19;97141.91;4161908;28;5886;-62